createdAt,value
2019-04-11T00:00:44.425Z,31.12
2019-04-11T00:03:11.329Z,33.30
2019-04-11T00:05:39.021Z,33.23
2019-04-11T00:08:05.961Z,26.77
2019-04-11T00:10:35.351Z,26.02
2019-04-11T00:13:14.258Z,27.62
2019-04-11T00:15:30.750Z,33.98
2019-04-11T00:17:58.513Z,30.23
2019-04-11T00:20:25.794Z,34.60
2019-04-11T00:22:54.131Z,34.13
2019-04-11T00:25:20.700Z,34.00
2019-04-11T00:27:47.260Z,33.73
2019-04-11T00:30:15.596Z,34.33
2019-04-11T00:32:43.370Z,35.83
2019-04-11T00:35:11.179Z,34.30
2019-04-11T00:37:38.016Z,35.50
2019-04-11T00:40:05.363Z,35.45
2019-04-11T00:42:31.825Z,34.25
2019-04-11T00:44:59.120Z,37.23
2019-04-11T00:47:25.792Z,32.05
2019-04-11T00:49:52.643Z,36.65
2019-04-11T00:52:20.511Z,31.52
2019-04-11T00:54:47.130Z,33.30
2019-04-11T00:57:14.819Z,33.05
2019-04-11T00:59:42.408Z,32.67
2019-04-11T01:02:09.480Z,33.35
2019-04-11T01:04:36.982Z,31.77
2019-04-11T01:07:04.765Z,33.15
2019-04-11T01:09:32.709Z,37.58
2019-04-11T01:12:00.466Z,35.65
2019-04-11T01:14:27.867Z,32.93
2019-04-11T01:16:55.102Z,30.60
2019-04-11T01:19:22.602Z,30.97
2019-04-11T01:21:49.304Z,32.93
2019-04-11T01:24:15.927Z,28.47
2019-04-11T01:26:43.405Z,25.00
2019-04-11T01:29:11.322Z,26.40
2019-04-11T01:31:39.961Z,26.55
2019-04-11T01:34:06.578Z,26.25
2019-04-11T01:36:33.242Z,22.67
2019-04-11T01:39:01.716Z,20.97
2019-04-11T01:41:30.872Z,21.52
2019-04-11T01:44:02.155Z,18.73
2019-04-11T01:46:26.429Z,22.58
2019-04-11T01:48:55.631Z,23.27
2019-04-11T01:51:23.299Z,24.55
2019-04-11T01:53:50.781Z,23.10
2019-04-11T01:56:17.872Z,23.50
2019-04-11T01:58:44.374Z,24.85
2019-04-11T02:01:30.522Z,24.43
2019-04-11T02:04:01.719Z,26.40
2019-04-11T02:06:28.358Z,23.92
2019-04-11T02:08:55.617Z,24.85
2019-04-11T02:11:23.435Z,26.52
2019-04-11T02:13:50.310Z,23.42
2019-04-11T02:16:19.030Z,23.80
2019-04-11T02:18:45.791Z,25.05
2019-04-11T02:21:12.234Z,24.15
2019-04-11T02:23:47.578Z,24.10
2019-04-11T02:26:25.272Z,26.75
2019-04-11T02:28:52.955Z,24.25
2019-04-11T02:31:20.573Z,24.02
2019-04-11T02:33:48.940Z,22.80
2019-04-11T02:36:16.746Z,23.22
2019-04-11T02:38:44.127Z,23.47
2019-04-11T02:41:12.500Z,24.30
2019-04-11T02:43:41.853Z,24.67
2019-04-11T02:46:17.256Z,23.92
2019-04-11T02:48:37.534Z,25.02
2019-04-11T02:51:05.716Z,22.55
2019-04-11T02:53:34.170Z,23.87
2019-04-11T02:56:02.767Z,23.52
2019-04-11T02:58:31.669Z,21.73
2019-04-11T03:01:01.054Z,20.90
2019-04-11T03:03:27.484Z,23.67
2019-04-11T03:05:55.437Z,22.17
2019-04-11T03:08:24.710Z,23.92
2019-04-11T03:10:51.431Z,20.60
2019-04-11T03:13:19.069Z,18.90
2019-04-11T03:15:59.375Z,19.35
2019-04-11T03:18:34.382Z,22.62
2019-04-11T03:20:49.780Z,22.52
2019-04-11T03:23:14.567Z,22.37
2019-04-11T03:25:40.577Z,21.85
2019-04-11T03:28:12.093Z,18.60
2019-04-11T03:30:54.074Z,17.95
2019-04-11T03:36:27.516Z,25.43
2019-04-11T03:38:24.703Z,17.35
2019-04-11T03:40:50.452Z,19.75
2019-04-11T03:43:11.860Z,19.05
2019-04-11T03:45:51.326Z,17.82
2019-04-11T03:48:10.409Z,19.48
2019-04-11T03:50:29.852Z,19.77
2019-04-11T03:52:56.178Z,17.30
2019-04-11T03:55:23.396Z,19.55
2019-04-11T03:57:51.841Z,15.85
2019-04-11T04:00:19.326Z,14.50
2019-04-11T04:02:46.786Z,14.45
2019-04-11T04:05:17.419Z,28.00
2019-04-11T04:07:44.436Z,10.68
2019-04-11T04:10:13.385Z,11.78
2019-04-11T04:12:40.768Z,11.08
2019-04-11T04:15:23.775Z,11.38
2019-04-11T04:17:43.574Z,9.88
2019-04-11T04:20:12.960Z,9.95
2019-04-11T04:22:46.235Z,10.78
2019-04-11T04:25:12.578Z,10.95
2019-04-11T04:27:41.015Z,10.35
2019-04-11T04:30:08.603Z,11.57
2019-04-11T04:32:36.282Z,11.85
2019-04-11T04:35:07.121Z,12.35
2019-04-11T04:37:34.801Z,9.95
2019-04-11T04:40:23.832Z,11.10
2019-04-11T04:42:38.647Z,12.35
2019-04-11T04:45:02.355Z,11.90
2019-04-11T04:47:37.355Z,12.82
2019-04-11T04:49:57.190Z,12.78
2019-04-11T04:52:25.206Z,14.05
2019-04-11T04:54:55.160Z,13.78
2019-04-11T04:57:21.865Z,12.28
2019-04-11T04:59:49.042Z,12.60
2019-04-11T05:02:17.577Z,11.15
2019-04-11T05:04:43.973Z,12.70
2019-04-11T05:07:12.143Z,12.98
2019-04-11T05:09:40.302Z,14.07
2019-04-11T05:12:07.286Z,14.00
2019-04-11T05:14:35.038Z,14.20
2019-04-11T05:17:02.454Z,13.48
2019-04-11T05:19:30.006Z,14.20
2019-04-11T05:21:57.577Z,14.10
2019-04-11T05:24:24.232Z,15.53
2019-04-11T05:26:50.706Z,15.53
2019-04-11T05:29:17.451Z,18.57
2019-04-11T05:31:44.892Z,16.65
2019-04-11T05:34:11.863Z,14.70
2019-04-11T05:36:38.731Z,14.58
2019-04-11T05:39:06.705Z,14.20
2019-04-11T05:41:33.512Z,15.23
2019-04-11T05:44:03.399Z,13.88
2019-04-11T05:46:35.232Z,14.95
2019-04-11T05:49:05.436Z,14.33
2019-04-11T05:51:43.268Z,13.88
2019-04-11T05:54:07.453Z,13.90
2019-04-11T05:56:33.385Z,13.58
2019-04-11T05:59:07.793Z,13.45
2019-04-11T06:01:42.509Z,14.18
2019-04-11T06:04:16.156Z,15.45
2019-04-11T06:06:46.573Z,13.53
2019-04-11T06:09:16.235Z,19.57
2019-04-11T06:11:54.450Z,17.80
2019-04-11T06:14:24.910Z,16.40
2019-04-11T06:16:55.763Z,15.18
2019-04-11T06:19:24.833Z,14.80
2019-04-11T06:21:56.077Z,13.98
2019-04-11T06:24:28.487Z,13.62
2019-04-11T06:26:56.908Z,14.23
2019-04-11T06:29:29.648Z,14.63
2019-04-11T06:32:05.565Z,14.35
2019-04-11T06:34:40.169Z,14.43
2019-04-11T06:37:11.798Z,18.45
2019-04-11T06:39:49.484Z,13.58
2019-04-11T06:42:27.063Z,11.28
2019-04-11T06:45:13.431Z,13.32
2019-04-11T06:47:43.026Z,15.72
2019-04-11T06:50:17.402Z,13.38
2019-04-11T06:55:14.852Z,10.45
2019-04-11T06:57:46.303Z,10.82
2019-04-11T07:00:16.873Z,11.80
2019-04-11T07:02:46.535Z,10.58
2019-04-11T07:05:16.120Z,11.45
2019-04-11T07:07:51.576Z,11.85
2019-04-11T07:10:20.427Z,12.40
2019-04-11T07:13:07.761Z,11.57
2019-04-11T07:15:36.102Z,11.88
2019-04-11T07:18:21.033Z,10.90
2019-04-11T07:20:49.943Z,8.90
2019-04-11T07:23:36.325Z,9.40
2019-04-11T07:26:08.053Z,7.03
2019-04-11T07:28:36.471Z,6.08
2019-04-11T07:31:07.565Z,6.03
2019-04-11T07:33:49.569Z,6.25
2019-04-11T07:36:36.030Z,5.65
2019-04-11T07:39:07.813Z,5.67
2019-04-11T07:41:36.781Z,5.80
2019-04-11T07:44:15.464Z,5.78
2019-04-11T07:47:14.652Z,4.55
2019-04-11T07:49:44.861Z,5.03
2019-04-11T07:52:15.587Z,5.75
2019-04-11T07:54:43.247Z,4.20
2019-04-11T07:57:17.623Z,4.28
2019-04-11T08:02:18.226Z,5.25
2019-04-11T08:04:55.869Z,4.45
2019-04-11T08:07:24.484Z,4.50
2019-04-11T08:09:52.987Z,3.52
2019-04-11T08:12:23.551Z,3.92
2019-04-11T08:15:01.476Z,3.35
2019-04-11T08:17:37.656Z,2.90
2019-04-11T08:20:19.302Z,2.40
2019-04-11T08:22:47.756Z,2.80
2019-04-11T08:25:33.515Z,2.60
2019-04-11T08:28:07.630Z,2.70
2019-04-11T08:30:39.909Z,2.60
2019-04-11T08:33:08.033Z,2.45
2019-04-11T08:35:37.404Z,2.27
2019-04-11T08:38:18.597Z,2.20
2019-04-11T08:41:02.991Z,2.02
2019-04-11T08:46:06.719Z,2.25
2019-04-11T08:48:39.233Z,2.27
2019-04-11T08:51:11.307Z,1.95
2019-04-11T08:53:45.975Z,2.20
2019-04-11T08:56:18.851Z,2.05
2019-04-11T08:59:09.510Z,1.80
2019-04-11T09:01:36.095Z,1.70
2019-04-11T09:04:19.428Z,1.65
2019-04-11T09:06:47.086Z,1.80
2019-04-11T09:09:27.470Z,1.70
2019-04-11T09:11:56.279Z,1.67
2019-04-11T09:14:42.428Z,1.57
2019-04-11T09:17:10.811Z,1.87
2019-04-11T09:19:39.155Z,1.82
2019-04-11T09:22:07.534Z,1.75
2019-04-11T09:24:43.126Z,1.50
2019-04-11T09:27:30.940Z,1.72
2019-04-11T09:30:02.642Z,1.40
2019-04-11T09:32:50.763Z,1.80
2019-04-11T09:35:37.431Z,1.60
2019-04-11T09:38:06.367Z,1.67
2019-04-11T09:40:37.530Z,1.40
2019-04-11T09:43:24.283Z,1.55
2019-04-11T09:46:10.269Z,1.27
2019-04-11T09:48:56.043Z,2.12
2019-04-11T09:51:33.883Z,1.30
2019-04-11T09:54:05.652Z,1.27
2019-04-11T09:56:37.869Z,1.20
2019-04-11T09:59:14.295Z,1.30
2019-04-11T10:02:00.318Z,1.20
2019-04-11T10:04:29.743Z,1.15
2019-04-11T10:07:01.330Z,1.20
2019-04-11T10:09:30.372Z,1.02
2019-04-11T10:12:15.878Z,1.20
2019-04-11T10:14:44.350Z,1.02
2019-04-11T10:17:22.619Z,0.90
2019-04-11T10:19:48.452Z,1.47
2019-04-11T10:22:32.161Z,1.50
2019-04-11T10:25:12.852Z,1.47
2019-04-11T10:27:41.217Z,1.90
2019-04-11T10:30:26.394Z,1.80
2019-04-11T10:32:57.680Z,1.60
2019-04-11T10:35:26.160Z,1.80
2019-04-11T10:37:54.714Z,1.60
2019-04-11T10:40:39.919Z,1.57
2019-04-11T10:43:14.330Z,2.20
2019-04-11T10:45:55.258Z,2.67
2019-04-11T10:48:33.530Z,3.25
2019-04-11T10:51:10.821Z,2.70
2019-04-11T10:53:37.574Z,3.00
2019-04-11T10:56:06.335Z,2.95
2019-04-11T10:58:37.626Z,3.15
2019-04-11T11:01:05.980Z,24.75
2019-04-11T11:03:49.410Z,7.62
2019-04-11T11:06:17.792Z,2.20
2019-04-11T11:08:46.139Z,2.30
2019-04-11T11:11:15.908Z,2.20
2019-04-11T11:13:47.919Z,2.10
2019-04-11T11:16:14.567Z,2.60
2019-04-11T11:19:24.864Z,2.80
2019-04-11T11:21:32.173Z,3.33
2019-04-11T11:24:15.542Z,2.50
2019-04-11T11:26:43.165Z,3.12
2019-04-11T11:29:24.335Z,2.20
2019-04-11T11:31:52.806Z,2.47
2019-04-11T11:34:24.887Z,4.70
2019-04-11T11:36:54.998Z,9.25
2019-04-11T11:39:33.387Z,2.60
2019-04-11T11:42:19.829Z,22.62
2019-04-11T11:44:51.386Z,12.93
2019-04-11T11:47:39.555Z,14.18
2019-04-11T11:50:07.686Z,8.35
2019-04-11T11:52:51.545Z,6.70
2019-04-11T11:55:27.226Z,12.60
2019-04-11T11:58:16.851Z,10.43
2019-04-11T12:00:40.976Z,7.50
2019-04-11T12:03:30.736Z,5.70
2019-04-11T12:05:58.984Z,5.30
2019-04-11T12:08:46.585Z,4.00
2019-04-11T12:11:13.935Z,3.12
2019-04-11T12:13:59.941Z,3.62
2019-04-11T12:16:41.718Z,4.10
2019-04-11T12:19:10.929Z,3.70
2019-04-11T12:21:38.860Z,4.25
2019-04-11T12:24:25.071Z,3.50
2019-04-11T12:26:56.518Z,3.60
2019-04-11T12:29:46.823Z,3.80
2019-04-11T12:32:30.543Z,4.12
2019-04-11T12:35:08.180Z,3.42
2019-04-11T12:37:39.584Z,4.08
2019-04-11T12:40:11.100Z,3.80
2019-04-11T12:42:39.613Z,4.10
2019-04-11T12:45:24.569Z,6.58
2019-04-11T12:47:51.115Z,4.15
2019-04-11T12:50:19.651Z,4.03
2019-04-11T12:52:48.032Z,3.87
2019-04-11T12:55:31.737Z,4.72
2019-04-11T12:58:00.211Z,4.15
2019-04-11T13:00:34.317Z,4.03
2019-04-11T13:05:34.600Z,10.68
2019-04-11T13:08:19.702Z,4.42
2019-04-11T13:10:47.237Z,10.82
2019-04-11T13:13:15.691Z,6.53
2019-04-11T13:15:44.148Z,5.37
2019-04-11T13:18:18.541Z,4.45
2019-04-11T13:20:49.955Z,6.87
2019-04-11T13:23:36.362Z,5.75
2019-04-11T13:26:19.990Z,5.83
2019-04-11T13:29:00.596Z,5.37
2019-04-11T13:31:45.693Z,5.78
2019-04-11T13:34:13.838Z,9.88
2019-04-11T13:36:45.262Z,7.95
2019-04-11T13:39:11.892Z,5.05
2019-04-11T13:41:40.270Z,4.70
2019-04-11T13:44:09.871Z,5.10
2019-04-11T13:46:50.404Z,5.10
2019-04-11T13:49:35.201Z,8.33
2019-04-11T13:52:06.567Z,4.83
2019-04-11T13:54:38.039Z,4.80
2019-04-11T13:57:06.503Z,5.40
2019-04-11T13:59:34.862Z,5.08
2019-04-11T14:02:15.671Z,4.90
2019-04-11T14:04:54.491Z,5.47
2019-04-11T14:07:23.678Z,5.67
2019-04-11T14:10:04.929Z,5.60
2019-04-11T14:12:33.483Z,5.85
2019-04-11T14:15:06.351Z,5.65
2019-04-11T14:17:41.624Z,5.80
2019-04-11T14:20:11.610Z,6.87
2019-04-11T14:22:43.461Z,7.33
2019-04-11T14:25:15.039Z,8.60
2019-04-11T14:27:43.047Z,8.28
2019-04-11T14:30:11.683Z,8.28
2019-04-11T14:32:40.148Z,9.45
2019-04-11T14:35:08.724Z,9.03
2019-04-11T14:37:43.050Z,8.60
2019-04-11T14:40:19.490Z,9.00
2019-04-11T14:42:47.860Z,8.70
2019-04-11T14:45:21.984Z,13.45
2019-04-11T14:48:07.931Z,15.70
2019-04-11T14:50:54.151Z,10.15
2019-04-11T14:53:40.759Z,9.85
2019-04-11T14:56:09.135Z,12.45
2019-04-11T14:58:54.362Z,11.75
2019-04-11T15:01:27.940Z,15.95
2019-04-11T15:04:13.617Z,13.60
2019-04-11T15:06:44.614Z,14.23
2019-04-11T15:09:17.802Z,13.83
2019-04-11T15:11:52.178Z,13.70
2019-04-11T15:14:23.524Z,15.68
2019-04-11T15:16:51.902Z,15.25
2019-04-11T15:19:18.366Z,14.13
2019-04-11T15:22:06.298Z,14.85
2019-04-11T15:27:53.496Z,23.47
2019-04-11T15:30:38.547Z,30.10
2019-04-11T15:36:11.671Z,13.58
2019-04-11T15:38:49.038Z,19.15
2019-04-11T15:41:15.509Z,16.00
2019-04-11T15:43:43.853Z,15.38
2019-04-11T15:46:12.190Z,12.40
2019-04-11T15:48:40.547Z,17.85
2019-04-11T15:51:25.504Z,12.78
2019-04-11T15:53:53.876Z,12.43
2019-04-11T15:56:41.798Z,11.57
2019-04-11T15:59:12.926Z,11.75
2019-04-11T16:01:49.872Z,14.90
2019-04-11T16:04:30.188Z,11.53
2019-04-11T16:07:11.711Z,12.70
2019-04-11T16:09:39.876Z,11.93
2019-04-11T16:12:25.620Z,12.23
2019-04-11T16:15:09.222Z,12.10
2019-04-11T16:17:49.687Z,17.70
2019-04-11T16:20:18.169Z,11.63
2019-04-11T16:22:46.441Z,15.50
2019-04-11T16:25:15.129Z,13.15
2019-04-11T16:27:43.500Z,9.20
2019-04-11T16:30:17.568Z,8.88
2019-04-11T16:35:26.095Z,8.67
2019-04-11T16:38:00.458Z,9.13
2019-04-11T16:40:45.691Z,9.35
2019-04-11T16:43:12.176Z,8.43
2019-04-11T16:45:40.513Z,8.28
2019-04-11T16:48:07.090Z,7.95
2019-04-11T16:50:33.620Z,8.10
2019-04-11T16:53:00.187Z,7.03
2019-04-11T16:55:26.866Z,7.00
2019-04-11T16:57:53.343Z,7.90
2019-04-11T17:00:20.627Z,7.10
2019-04-11T17:02:47.987Z,6.05
2019-04-11T17:05:14.539Z,6.50
2019-04-11T17:07:59.407Z,6.75
2019-04-11T17:10:44.541Z,7.72
2019-04-11T17:13:11.201Z,7.00
2019-04-11T17:15:37.667Z,6.35
2019-04-11T17:18:04.242Z,6.67
2019-04-11T17:20:30.717Z,8.60
2019-04-11T17:22:57.216Z,6.35
2019-04-11T17:25:23.807Z,6.92
2019-04-11T17:27:50.700Z,6.83
2019-04-11T17:30:18.647Z,6.00
2019-04-11T17:32:45.194Z,6.50
2019-04-11T17:35:11.902Z,6.58
2019-04-11T17:37:38.368Z,6.70
2019-04-11T17:40:07.037Z,5.90
2019-04-11T17:42:33.774Z,5.83
2019-04-11T17:45:00.323Z,5.58
2019-04-11T17:47:27.503Z,5.62
2019-04-11T17:49:54.091Z,6.92
2019-04-11T17:52:20.563Z,6.17
2019-04-11T17:54:47.179Z,6.62
2019-04-11T17:57:13.669Z,6.60
2019-04-11T17:59:40.278Z,5.60
2019-04-11T18:02:10.426Z,6.22
2019-04-11T18:04:37.607Z,6.20
2019-04-11T18:07:04.318Z,5.58
2019-04-11T18:09:30.775Z,6.50
2019-04-11T18:11:57.256Z,6.33
2019-04-11T18:14:23.911Z,6.40
2019-04-11T18:16:52.310Z,6.40
2019-04-11T18:19:19.246Z,6.33
2019-04-11T18:21:45.822Z,6.37
2019-04-11T18:24:12.420Z,6.40
2019-04-11T18:26:39.074Z,6.00
2019-04-11T18:29:05.691Z,6.60
2019-04-11T18:31:32.298Z,6.67
2019-04-11T18:34:01.664Z,6.92
2019-04-11T18:36:27.029Z,7.00
2019-04-11T18:38:53.729Z,7.75
2019-04-11T18:41:20.294Z,8.20
2019-04-11T18:43:47.146Z,7.22
2019-04-11T18:46:14.434Z,7.92
2019-04-11T18:48:40.871Z,7.87
2019-04-11T18:51:07.543Z,7.60
2019-04-11T18:53:35.101Z,7.83
2019-04-11T18:56:01.846Z,8.35
2019-04-11T18:58:28.588Z,8.18
2019-04-11T19:00:55.268Z,8.45
2019-04-11T19:03:21.883Z,8.88
2019-04-11T19:05:48.377Z,8.55
2019-04-11T19:08:16.508Z,9.63
2019-04-11T19:10:45.768Z,9.90
2019-04-11T19:13:11.403Z,9.25
2019-04-11T19:15:37.981Z,10.08
2019-04-11T19:18:06.820Z,9.80
2019-04-11T19:20:33.072Z,9.23
2019-04-11T19:22:59.535Z,10.45
2019-04-11T19:25:28.259Z,9.70
2019-04-11T19:27:57.279Z,9.73
2019-04-11T19:30:26.358Z,10.23
2019-04-11T19:32:53.181Z,9.85
2019-04-11T19:35:19.681Z,10.43
2019-04-11T19:37:46.122Z,10.00
2019-04-11T19:40:16.135Z,10.15
2019-04-11T19:42:41.261Z,10.58
2019-04-11T19:45:08.225Z,10.68
2019-04-11T19:47:34.755Z,11.00
2019-04-11T19:50:01.491Z,12.73
2019-04-11T19:52:29.853Z,11.93
2019-04-11T19:54:58.627Z,12.30
2019-04-11T19:57:25.186Z,11.33
2019-04-11T19:59:51.867Z,11.93
2019-04-11T20:02:18.350Z,11.73
2019-04-11T20:04:46.611Z,12.93
2019-04-11T20:07:13.341Z,11.65
2019-04-11T20:09:39.882Z,12.30
2019-04-11T20:12:06.338Z,12.78
2019-04-11T20:14:34.974Z,12.15
2019-04-11T20:17:01.338Z,11.65
2019-04-11T20:19:28.141Z,13.15
2019-04-11T20:21:54.642Z,13.98
2019-04-11T20:24:21.170Z,14.87
2019-04-11T20:26:50.352Z,13.88
2019-04-11T20:29:16.402Z,13.15
2019-04-11T20:31:42.843Z,13.95
2019-04-11T20:34:09.282Z,13.43
2019-04-11T20:36:35.753Z,14.03
2019-04-11T20:39:05.092Z,13.40
2019-04-11T20:41:31.833Z,13.60
2019-04-11T20:43:58.318Z,14.25
2019-04-11T20:46:28.705Z,14.45
2019-04-11T20:48:54.624Z,14.05
2019-04-11T20:51:21.263Z,14.20
2019-04-11T20:53:48.795Z,15.13
2019-04-11T20:56:24.160Z,14.47
2019-04-11T20:58:43.626Z,15.75
2019-04-11T21:01:10.189Z,14.83
2019-04-11T21:03:36.645Z,14.15
2019-04-11T21:06:03.314Z,15.13
2019-04-11T21:08:32.878Z,16.55
2019-04-11T21:10:58.305Z,16.25
2019-04-11T21:13:24.767Z,15.75
2019-04-11T21:15:51.204Z,17.32
2019-04-11T21:18:17.721Z,17.27
2019-04-11T21:20:44.274Z,16.90
2019-04-11T21:23:10.743Z,17.35
2019-04-11T21:25:37.206Z,16.57
2019-04-11T21:28:03.688Z,17.15
2019-04-11T21:30:30.312Z,17.65
2019-04-11T21:32:57.762Z,17.25
2019-04-11T21:35:24.213Z,17.92
2019-04-11T21:37:50.666Z,17.25
2019-04-11T21:40:17.168Z,17.92
2019-04-11T21:42:43.632Z,17.65
2019-04-11T21:45:10.185Z,17.10
2019-04-11T21:47:37.342Z,17.75
2019-04-11T21:50:09.081Z,18.02
2019-04-11T21:52:34.186Z,18.60
2019-04-11T21:55:00.656Z,17.48
2019-04-11T21:57:27.110Z,18.37
2019-04-11T21:59:53.638Z,19.80
2019-04-11T22:02:23.931Z,19.45
2019-04-11T22:04:48.738Z,18.95
2019-04-11T22:07:15.300Z,18.73
2019-04-11T22:09:41.764Z,115.80
2019-04-11T22:12:08.828Z,19.80
2019-04-11T22:14:35.370Z,19.62
2019-04-11T22:17:01.943Z,19.15
2019-04-11T22:19:28.384Z,19.55
2019-04-11T22:21:54.877Z,19.87
2019-04-11T22:24:21.354Z,18.65
2019-04-11T22:26:50.519Z,18.82
2019-04-11T22:29:16.035Z,18.25
2019-04-11T22:31:42.478Z,20.75
2019-04-11T22:34:28.775Z,19.45
2019-04-11T22:36:55.505Z,20.00
2019-04-11T22:39:23.070Z,19.77
2019-04-11T22:41:49.515Z,19.50
2019-04-11T22:44:15.950Z,19.92
2019-04-11T22:46:42.404Z,18.80
2019-04-11T22:49:09.466Z,19.57
2019-04-11T22:51:36.863Z,19.45
2019-04-11T22:54:03.540Z,19.60
2019-04-11T22:56:29.982Z,18.07
2019-04-11T22:58:56.431Z,19.30
2019-04-11T23:01:22.870Z,19.00
2019-04-11T23:03:54.279Z,19.57
2019-04-11T23:06:20.698Z,19.05
2019-04-11T23:08:49.077Z,20.27
2019-04-11T23:11:15.697Z,18.50
2019-04-11T23:13:45.389Z,18.15
2019-04-11T23:16:12.031Z,19.40
2019-04-11T23:18:38.854Z,18.15
2019-04-11T23:21:05.287Z,18.87
2019-04-11T23:23:31.713Z,19.30
2019-04-11T23:25:58.209Z,19.62
2019-04-11T23:28:24.640Z,18.55
2019-04-11T23:30:51.080Z,17.42
2019-04-11T23:33:18.923Z,18.25
2019-04-11T23:35:48.880Z,16.75
2019-04-11T23:38:15.215Z,16.75
2019-04-11T23:40:41.670Z,15.98
2019-04-11T23:43:08.115Z,15.95
2019-04-11T23:45:34.577Z,16.27
2019-04-11T23:48:01.125Z,16.50
2019-04-11T23:50:27.563Z,14.90
2019-04-11T23:52:56.973Z,14.90
2019-04-11T23:55:22.370Z,16.35
2019-04-11T23:57:48.855Z,14.00
